sensor_id;sensor_type;location;lat;lon;timestamp;pressure;altitude;pressure_sealevel;temperature
70831;BMP180;58451;51.550;7.208;2023-02-03T00:00:17;101612.80;;;7.92
70831;BMP180;58451;51.550;7.208;2023-02-03T00:01:49;101602.80;;;7.90
70831;BMP180;58451;51.550;7.208;2023-02-03T00:03:21;101612.20;;;7.90
70831;BMP180;58451;51.550;7.208;2023-02-03T00:04:53;101601.40;;;7.92
70831;BMP180;58451;51.550;7.208;2023-02-03T00:06:25;101605.20;;;7.92
70831;BMP180;58451;51.550;7.208;2023-02-03T00:07:57;101609.80;;;7.98
70831;BMP180;58451;51.550;7.208;2023-02-03T00:09:29;101617.60;;;7.98
70831;BMP180;58451;51.550;7.208;2023-02-03T00:11:01;101606.40;;;8.00
70831;BMP180;58451;51.550;7.208;2023-02-03T00:12:33;101601.40;;;8.00
70831;BMP180;58451;51.550;7.208;2023-02-03T00:14:05;101602.20;;;8.00
70831;BMP180;58451;51.550;7.208;2023-02-03T00:15:38;101604.40;;;8.00
70831;BMP180;58451;51.550;7.208;2023-02-03T00:17:10;101602.00;;;8.00
70831;BMP180;58451;51.550;7.208;2023-02-03T00:18:41;101595.60;;;8.00
70831;BMP180;58451;51.550;7.208;2023-02-03T00:20:14;101598.20;;;8.00
70831;BMP180;58451;51.550;7.208;2023-02-03T00:21:46;101595.60;;;8.00
70831;BMP180;58451;51.550;7.208;2023-02-03T00:23:18;101597.20;;;8.00
70831;BMP180;58451;51.550;7.208;2023-02-03T00:24:50;101596.60;;;8.00
70831;BMP180;58451;51.550;7.208;2023-02-03T00:26:22;101593.80;;;8.00
70831;BMP180;58451;51.550;7.208;2023-02-03T00:27:56;101583.60;;;8.00
70831;BMP180;58451;51.550;7.208;2023-02-03T00:29:28;101580.20;;;8.00
70831;BMP180;58451;51.550;7.208;2023-02-03T00:31:00;101575.00;;;8.00
70831;BMP180;58451;51.550;7.208;2023-02-03T00:32:32;101587.80;;;8.00
70831;BMP180;58451;51.550;7.208;2023-02-03T00:34:03;101575.00;;;8.00
70831;BMP180;58451;51.550;7.208;2023-02-03T00:35:38;101583.20;;;8.00
70831;BMP180;58451;51.550;7.208;2023-02-03T00:37:13;101579.80;;;8.00
70831;BMP180;58451;51.550;7.208;2023-02-03T00:38:46;101584.20;;;8.00
70831;BMP180;58451;51.550;7.208;2023-02-03T00:40:21;101588.40;;;8.00
70831;BMP180;58451;51.550;7.208;2023-02-03T00:41:54;101587.60;;;8.00
70831;BMP180;58451;51.550;7.208;2023-02-03T00:43:27;101587.40;;;8.00
70831;BMP180;58451;51.550;7.208;2023-02-03T00:44:59;101587.60;;;8.00
70831;BMP180;58451;51.550;7.208;2023-02-03T00:46:32;101598.20;;;8.00
70831;BMP180;58451;51.550;7.208;2023-02-03T00:48:07;101595.60;;;8.04
70831;BMP180;58451;51.550;7.208;2023-02-03T00:49:39;101597.60;;;8.06
70831;BMP180;58451;51.550;7.208;2023-02-03T00:51:11;101596.60;;;8.08
70831;BMP180;58451;51.550;7.208;2023-02-03T00:52:43;101595.20;;;8.10
70831;BMP180;58451;51.550;7.208;2023-02-03T00:54:15;101591.80;;;8.10
70831;BMP180;58451;51.550;7.208;2023-02-03T00:55:48;101592.60;;;8.10
70831;BMP180;58451;51.550;7.208;2023-02-03T00:57:20;101605.60;;;8.10
70831;BMP180;58451;51.550;7.208;2023-02-03T00:58:52;101612.80;;;8.10
70831;BMP180;58451;51.550;7.208;2023-02-03T01:00:24;101621.80;;;8.08
70831;BMP180;58451;51.550;7.208;2023-02-03T01:01:59;101621.40;;;8.10
70831;BMP180;58451;51.550;7.208;2023-02-03T01:03:30;101625.80;;;8.10
70831;BMP180;58451;51.550;7.208;2023-02-03T01:05:02;101625.60;;;8.10
70831;BMP180;58451;51.550;7.208;2023-02-03T01:06:34;101637.40;;;8.10
70831;BMP180;58451;51.550;7.208;2023-02-03T01:08:07;101625.60;;;8.10
70831;BMP180;58451;51.550;7.208;2023-02-03T01:09:39;101632.00;;;8.10
70831;BMP180;58451;51.550;7.208;2023-02-03T01:11:21;101644.00;;;8.10
70831;BMP180;58451;51.550;7.208;2023-02-03T01:12:53;101648.80;;;8.10
70831;BMP180;58451;51.550;7.208;2023-02-03T01:14:31;101654.40;;;8.10
70831;BMP180;58451;51.550;7.208;2023-02-03T01:16:10;101659.20;;;8.10
70831;BMP180;58451;51.550;7.208;2023-02-03T01:17:46;101665.20;;;8.10
70831;BMP180;58451;51.550;7.208;2023-02-03T01:19:24;101672.80;;;8.10
70831;BMP180;58451;51.550;7.208;2023-02-03T01:20:56;101661.80;;;8.10
70831;BMP180;58451;51.550;7.208;2023-02-03T01:22:30;101663.00;;;8.10
70831;BMP180;58451;51.550;7.208;2023-02-03T01:24:02;101656.60;;;8.10
70831;BMP180;58451;51.550;7.208;2023-02-03T01:25:35;101650.20;;;8.10
70831;BMP180;58451;51.550;7.208;2023-02-03T01:27:07;101644.80;;;8.10
70831;BMP180;58451;51.550;7.208;2023-02-03T01:28:39;101655.20;;;8.10
70831;BMP180;58451;51.550;7.208;2023-02-03T01:30:11;101655.00;;;8.10
70831;BMP180;58451;51.550;7.208;2023-02-03T01:31:43;101653.20;;;8.10
70831;BMP180;58451;51.550;7.208;2023-02-03T01:33:15;101652.80;;;8.10
70831;BMP180;58451;51.550;7.208;2023-02-03T01:34:47;101642.40;;;8.10
70831;BMP180;58451;51.550;7.208;2023-02-03T01:36:22;101643.40;;;8.10
70831;BMP180;58451;51.550;7.208;2023-02-03T01:37:54;101645.40;;;8.10
70831;BMP180;58451;51.550;7.208;2023-02-03T01:39:26;101653.80;;;8.10
70831;BMP180;58451;51.550;7.208;2023-02-03T01:40:58;101654.00;;;8.10
70831;BMP180;58451;51.550;7.208;2023-02-03T01:42:32;101665.20;;;8.10
70831;BMP180;58451;51.550;7.208;2023-02-03T01:44:45;101658.80;;;8.10
70831;BMP180;58451;51.550;7.208;2023-02-03T01:46:42;101639.00;;;8.10
70831;BMP180;58451;51.550;7.208;2023-02-03T01:48:18;101636.60;;;8.10
70831;BMP180;58451;51.550;7.208;2023-02-03T01:51:44;101637.20;;;8.10
70831;BMP180;58451;51.550;7.208;2023-02-03T01:53:22;101647.60;;;8.10
70831;BMP180;58451;51.550;7.208;2023-02-03T01:55:04;101647.40;;;8.10
70831;BMP180;58451;51.550;7.208;2023-02-03T01:57:00;101644.60;;;8.10
70831;BMP180;58451;51.550;7.208;2023-02-03T01:58:40;101639.20;;;8.12
70831;BMP180;58451;51.550;7.208;2023-02-03T02:00:14;101640.60;;;8.12
70831;BMP180;58451;51.550;7.208;2023-02-03T02:01:50;101645.80;;;8.18
70831;BMP180;58451;51.550;7.208;2023-02-03T02:03:42;101647.20;;;8.20
70831;BMP180;58451;51.550;7.208;2023-02-03T02:07:03;101636.80;;;8.20
70831;BMP180;58451;51.550;7.208;2023-02-03T02:08:37;101630.40;;;8.20
70831;BMP180;58451;51.550;7.208;2023-02-03T02:10:10;101617.20;;;8.20
70831;BMP180;58451;51.550;7.208;2023-02-03T02:11:45;101609.80;;;8.20
70831;BMP180;58451;51.550;7.208;2023-02-03T02:13:22;101609.60;;;8.20
70831;BMP180;58451;51.550;7.208;2023-02-03T02:14:56;101609.80;;;8.20
70831;BMP180;58451;51.550;7.208;2023-02-03T02:21:00;101612.20;;;8.22
70831;BMP180;58451;51.550;7.208;2023-02-03T02:29:02;101584.00;;;8.28
70831;BMP180;58451;51.550;7.208;2023-02-03T02:34:53;101588.40;;;8.20
70831;BMP180;58451;51.550;7.208;2023-02-03T02:36:50;101579.60;;;8.26
70831;BMP180;58451;51.550;7.208;2023-02-03T02:38:40;101570.60;;;8.26
70831;BMP180;58451;51.550;7.208;2023-02-03T02:44:38;101563.60;;;8.26
70831;BMP180;58451;51.550;7.208;2023-02-03T02:46:21;101568.00;;;8.24
70831;BMP180;58451;51.550;7.208;2023-02-03T02:48:04;101568.40;;;8.22
70831;BMP180;58451;51.550;7.208;2023-02-03T02:50:05;101561.60;;;8.20
70831;BMP180;58451;51.550;7.208;2023-02-03T02:51:39;101560.00;;;8.20
70831;BMP180;58451;51.550;7.208;2023-02-03T02:53:15;101549.80;;;8.20
70831;BMP180;58451;51.550;7.208;2023-02-03T02:54:58;101542.00;;;8.20
70831;BMP180;58451;51.550;7.208;2023-02-03T02:56:35;101546.20;;;8.20
70831;BMP180;58451;51.550;7.208;2023-02-03T02:58:16;101542.40;;;8.20
70831;BMP180;58451;51.550;7.208;2023-02-03T02:59:52;101531.20;;;8.20
70831;BMP180;58451;51.550;7.208;2023-02-03T03:01:27;101540.40;;;8.20
70831;BMP180;58451;51.550;7.208;2023-02-03T03:04:51;101579.40;;;8.20
70831;BMP180;58451;51.550;7.208;2023-02-03T03:06:40;101587.00;;;8.20
70831;BMP180;58451;51.550;7.208;2023-02-03T03:08:17;101590.60;;;8.20
70831;BMP180;58451;51.550;7.208;2023-02-03T03:10:09;101589.60;;;8.20
70831;BMP180;58451;51.550;7.208;2023-02-03T03:11:49;101590.40;;;8.20
70831;BMP180;58451;51.550;7.208;2023-02-03T03:13:29;101595.40;;;8.20
70831;BMP180;58451;51.550;7.208;2023-02-03T03:15:21;101588.40;;;8.20
70831;BMP180;58451;51.550;7.208;2023-02-03T03:17:05;101593.20;;;8.20
70831;BMP180;58451;51.550;7.208;2023-02-03T03:18:58;101591.20;;;8.20
70831;BMP180;58451;51.550;7.208;2023-02-03T03:20:37;101584.40;;;8.20
70831;BMP180;58451;51.550;7.208;2023-02-03T03:22:15;101583.20;;;8.20
70831;BMP180;58451;51.550;7.208;2023-02-03T03:23:51;101583.40;;;8.20
70831;BMP180;58451;51.550;7.208;2023-02-03T03:25:39;101581.60;;;8.20
70831;BMP180;58451;51.550;7.208;2023-02-03T03:27:25;101583.40;;;8.20
70831;BMP180;58451;51.550;7.208;2023-02-03T03:29:34;101577.20;;;8.20
70831;BMP180;58451;51.550;7.208;2023-02-03T03:31:08;101574.60;;;8.20
70831;BMP180;58451;51.550;7.208;2023-02-03T03:32:42;101576.20;;;8.20
70831;BMP180;58451;51.550;7.208;2023-02-03T03:34:15;101574.20;;;8.20
70831;BMP180;58451;51.550;7.208;2023-02-03T03:36:02;101584.80;;;8.20
70831;BMP180;58451;51.550;7.208;2023-02-03T03:37:41;101569.20;;;8.20
70831;BMP180;58451;51.550;7.208;2023-02-03T03:39:34;101573.40;;;8.20
70831;BMP180;58451;51.550;7.208;2023-02-03T03:41:19;101579.20;;;8.20
70831;BMP180;58451;51.550;7.208;2023-02-03T03:43:13;101576.80;;;8.20
70831;BMP180;58451;51.550;7.208;2023-02-03T03:46:53;101573.00;;;8.20
70831;BMP180;58451;51.550;7.208;2023-02-03T03:48:50;101569.80;;;8.20
70831;BMP180;58451;51.550;7.208;2023-02-03T03:50:40;101581.00;;;8.20
70831;BMP180;58451;51.550;7.208;2023-02-03T03:52:22;101578.80;;;8.20
70831;BMP180;58451;51.550;7.208;2023-02-03T03:54:02;101589.40;;;8.20
70831;BMP180;58451;51.550;7.208;2023-02-03T03:55:37;101584.60;;;8.20
70831;BMP180;58451;51.550;7.208;2023-02-03T03:57:23;101579.80;;;8.20
70831;BMP180;58451;51.550;7.208;2023-02-03T03:58:59;101582.60;;;8.20
70831;BMP180;58451;51.550;7.208;2023-02-03T04:00:35;101579.00;;;8.20
70831;BMP180;58451;51.550;7.208;2023-02-03T04:02:09;101588.20;;;8.20
70831;BMP180;58451;51.550;7.208;2023-02-03T04:03:51;101582.60;;;8.20
70831;BMP180;58451;51.550;7.208;2023-02-03T04:05:24;101585.00;;;8.20
70831;BMP180;58451;51.550;7.208;2023-02-03T04:06:56;101579.00;;;8.20
70831;BMP180;58451;51.550;7.208;2023-02-03T04:08:28;101581.40;;;8.20
70831;BMP180;58451;51.550;7.208;2023-02-03T04:10:03;101571.60;;;8.20
70831;BMP180;58451;51.550;7.208;2023-02-03T04:11:37;101578.60;;;8.24
70831;BMP180;58451;51.550;7.208;2023-02-03T04:13:28;101580.20;;;8.20
70831;BMP180;58451;51.550;7.208;2023-02-03T04:14:59;101580.00;;;8.22
70831;BMP180;58451;51.550;7.208;2023-02-03T04:16:31;101570.00;;;8.20
70831;BMP180;58451;51.550;7.208;2023-02-03T04:18:04;101564.80;;;8.20
70831;BMP180;58451;51.550;7.208;2023-02-03T04:19:36;101566.20;;;8.20
70831;BMP180;58451;51.550;7.208;2023-02-03T04:21:08;101572.40;;;8.20
70831;BMP180;58451;51.550;7.208;2023-02-03T04:22:41;101572.60;;;8.20
70831;BMP180;58451;51.550;7.208;2023-02-03T04:24:13;101570.40;;;8.20
70831;BMP180;58451;51.550;7.208;2023-02-03T04:25:44;101580.40;;;8.20
70831;BMP180;58451;51.550;7.208;2023-02-03T04:27:16;101577.20;;;8.20
70831;BMP180;58451;51.550;7.208;2023-02-03T04:28:48;101586.00;;;8.20
70831;BMP180;58451;51.550;7.208;2023-02-03T04:30:20;101594.20;;;8.28
70831;BMP180;58451;51.550;7.208;2023-02-03T04:31:52;101591.40;;;8.30
70831;BMP180;58451;51.550;7.208;2023-02-03T04:33:23;101582.20;;;8.30
70831;BMP180;58451;51.550;7.208;2023-02-03T04:34:57;101575.80;;;8.28
70831;BMP180;58451;51.550;7.208;2023-02-03T04:36:29;101564.80;;;8.28
70831;BMP180;58451;51.550;7.208;2023-02-03T04:38:01;101568.40;;;8.26
70831;BMP180;58451;51.550;7.208;2023-02-03T04:39:32;101573.60;;;8.20
70831;BMP180;58451;51.550;7.208;2023-02-03T04:41:04;101576.60;;;8.30
70831;BMP180;58451;51.550;7.208;2023-02-03T04:42:38;101583.80;;;8.28
70831;BMP180;58451;51.550;7.208;2023-02-03T04:44:10;101572.20;;;8.30
70831;BMP180;58451;51.550;7.208;2023-02-03T04:45:41;101566.00;;;8.30
70831;BMP180;58451;51.550;7.208;2023-02-03T04:47:14;101569.20;;;8.30
70831;BMP180;58451;51.550;7.208;2023-02-03T04:48:46;101569.60;;;8.30
70831;BMP180;58451;51.550;7.208;2023-02-03T04:50:18;101558.40;;;8.28
70831;BMP180;58451;51.550;7.208;2023-02-03T04:51:50;101547.20;;;8.30
70831;BMP180;58451;51.550;7.208;2023-02-03T04:53:22;101545.00;;;8.30
70831;BMP180;58451;51.550;7.208;2023-02-03T04:54:54;101552.40;;;8.26
70831;BMP180;58451;51.550;7.208;2023-02-03T04:56:26;101540.20;;;8.30
70831;BMP180;58451;51.550;7.208;2023-02-03T04:57:59;101530.80;;;8.30
70831;BMP180;58451;51.550;7.208;2023-02-03T04:59:31;101534.00;;;8.30
70831;BMP180;58451;51.550;7.208;2023-02-03T05:01:08;101538.20;;;8.30
70831;BMP180;58451;51.550;7.208;2023-02-03T05:02:40;101535.00;;;8.30
70831;BMP180;58451;51.550;7.208;2023-02-03T05:04:12;101539.20;;;8.30
70831;BMP180;58451;51.550;7.208;2023-02-03T05:05:44;101545.40;;;8.30
70831;BMP180;58451;51.550;7.208;2023-02-03T05:07:16;101541.40;;;8.30
70831;BMP180;58451;51.550;7.208;2023-02-03T05:08:47;101545.60;;;8.30
70831;BMP180;58451;51.550;7.208;2023-02-03T05:10:19;101548.20;;;8.30
70831;BMP180;58451;51.550;7.208;2023-02-03T05:11:51;101550.40;;;8.30
70831;BMP180;58451;51.550;7.208;2023-02-03T05:13:23;101543.20;;;8.30
70831;BMP180;58451;51.550;7.208;2023-02-03T05:14:55;101542.40;;;8.30
70831;BMP180;58451;51.550;7.208;2023-02-03T05:16:27;101533.20;;;8.30
70831;BMP180;58451;51.550;7.208;2023-02-03T05:17:58;101525.40;;;8.30
70831;BMP180;58451;51.550;7.208;2023-02-03T05:19:30;101532.80;;;8.30
70831;BMP180;58451;51.550;7.208;2023-02-03T05:21:03;101531.80;;;8.30
70831;BMP180;58451;51.550;7.208;2023-02-03T05:22:34;101526.20;;;8.30
70831;BMP180;58451;51.550;7.208;2023-02-03T05:24:06;101524.40;;;8.30
70831;BMP180;58451;51.550;7.208;2023-02-03T05:25:38;101536.00;;;8.30
70831;BMP180;58451;51.550;7.208;2023-02-03T05:27:10;101537.80;;;8.30
70831;BMP180;58451;51.550;7.208;2023-02-03T05:28:41;101541.40;;;8.30
70831;BMP180;58451;51.550;7.208;2023-02-03T05:30:13;101542.60;;;8.30
70831;BMP180;58451;51.550;7.208;2023-02-03T05:31:45;101545.80;;;8.30
70831;BMP180;58451;51.550;7.208;2023-02-03T05:33:17;101541.20;;;8.30
70831;BMP180;58451;51.550;7.208;2023-02-03T05:34:49;101539.20;;;8.30
70831;BMP180;58451;51.550;7.208;2023-02-03T05:36:20;101517.60;;;8.30
70831;BMP180;58451;51.550;7.208;2023-02-03T05:37:52;101518.20;;;8.30
70831;BMP180;58451;51.550;7.208;2023-02-03T05:39:24;101516.40;;;8.30
70831;BMP180;58451;51.550;7.208;2023-02-03T05:40:56;101518.60;;;8.30
70831;BMP180;58451;51.550;7.208;2023-02-03T05:42:48;101523.00;;;8.30
70831;BMP180;58451;51.550;7.208;2023-02-03T05:44:22;101527.60;;;8.30
70831;BMP180;58451;51.550;7.208;2023-02-03T05:45:54;101531.00;;;8.30
70831;BMP180;58451;51.550;7.208;2023-02-03T05:47:29;101529.40;;;8.30
70831;BMP180;58451;51.550;7.208;2023-02-03T05:49:01;101530.40;;;8.30
70831;BMP180;58451;51.550;7.208;2023-02-03T05:50:34;101526.40;;;8.30
70831;BMP180;58451;51.550;7.208;2023-02-03T05:52:12;101524.40;;;8.30
70831;BMP180;58451;51.550;7.208;2023-02-03T05:53:43;101530.00;;;8.30
70831;BMP180;58451;51.550;7.208;2023-02-03T05:55:15;101529.20;;;8.30
70831;BMP180;58451;51.550;7.208;2023-02-03T05:56:47;101524.60;;;8.30
70831;BMP180;58451;51.550;7.208;2023-02-03T05:58:19;101530.20;;;8.30
70831;BMP180;58451;51.550;7.208;2023-02-03T05:59:51;101540.80;;;8.30
70831;BMP180;58451;51.550;7.208;2023-02-03T06:01:23;101538.00;;;8.30
70831;BMP180;58451;51.550;7.208;2023-02-03T06:02:58;101532.40;;;8.30
70831;BMP180;58451;51.550;7.208;2023-02-03T06:04:31;101523.80;;;8.32
70831;BMP180;58451;51.550;7.208;2023-02-03T06:06:03;101537.20;;;8.38
70831;BMP180;58451;51.550;7.208;2023-02-03T06:07:34;101537.60;;;8.40
70831;BMP180;58451;51.550;7.208;2023-02-03T06:09:07;101539.60;;;8.40
70831;BMP180;58451;51.550;7.208;2023-02-03T06:10:40;101545.80;;;8.36
70831;BMP180;58451;51.550;7.208;2023-02-03T06:12:11;101550.00;;;8.40
70831;BMP180;58451;51.550;7.208;2023-02-03T06:13:43;101557.20;;;8.40
70831;BMP180;58451;51.550;7.208;2023-02-03T06:15:16;101550.60;;;8.40
70831;BMP180;58451;51.550;7.208;2023-02-03T06:16:47;101545.00;;;8.40
70831;BMP180;58451;51.550;7.208;2023-02-03T06:18:19;101540.60;;;8.40
70831;BMP180;58451;51.550;7.208;2023-02-03T06:19:51;101535.40;;;8.40
70831;BMP180;58451;51.550;7.208;2023-02-03T06:21:23;101539.80;;;8.40
70831;BMP180;58451;51.550;7.208;2023-02-03T06:22:55;101533.80;;;8.40
70831;BMP180;58451;51.550;7.208;2023-02-03T06:24:27;101533.20;;;8.40
70831;BMP180;58451;51.550;7.208;2023-02-03T06:25:59;101531.60;;;8.40
70831;BMP180;58451;51.550;7.208;2023-02-03T06:27:31;101537.20;;;8.40
70831;BMP180;58451;51.550;7.208;2023-02-03T06:29:03;101543.40;;;8.40
70831;BMP180;58451;51.550;7.208;2023-02-03T06:30:35;101534.40;;;8.40
70831;BMP180;58451;51.550;7.208;2023-02-03T06:32:08;101533.60;;;8.40
70831;BMP180;58451;51.550;7.208;2023-02-03T06:33:40;101531.80;;;8.40
70831;BMP180;58451;51.550;7.208;2023-02-03T06:35:11;101538.40;;;8.40
70831;BMP180;58451;51.550;7.208;2023-02-03T06:36:43;101558.80;;;8.40
70831;BMP180;58451;51.550;7.208;2023-02-03T06:38:15;101543.40;;;8.40
70831;BMP180;58451;51.550;7.208;2023-02-03T06:39:47;101541.20;;;8.40
70831;BMP180;58451;51.550;7.208;2023-02-03T06:41:19;101537.20;;;8.40
70831;BMP180;58451;51.550;7.208;2023-02-03T06:42:50;101539.80;;;8.40
70831;BMP180;58451;51.550;7.208;2023-02-03T06:44:22;101541.40;;;8.40
70831;BMP180;58451;51.550;7.208;2023-02-03T06:45:54;101546.20;;;8.40
70831;BMP180;58451;51.550;7.208;2023-02-03T06:47:26;101551.40;;;8.40
70831;BMP180;58451;51.550;7.208;2023-02-03T06:48:58;101544.80;;;8.40
70831;BMP180;58451;51.550;7.208;2023-02-03T06:50:30;101550.60;;;8.40
70831;BMP180;58451;51.550;7.208;2023-02-03T06:52:02;101548.20;;;8.40
70831;BMP180;58451;51.550;7.208;2023-02-03T06:53:33;101545.40;;;8.40
70831;BMP180;58451;51.550;7.208;2023-02-03T06:55:06;101549.80;;;8.40
70831;BMP180;58451;51.550;7.208;2023-02-03T06:56:38;101552.20;;;8.40
70831;BMP180;58451;51.550;7.208;2023-02-03T06:58:10;101553.00;;;8.40
70831;BMP180;58451;51.550;7.208;2023-02-03T06:59:41;101556.00;;;8.38
70831;BMP180;58451;51.550;7.208;2023-02-03T07:01:13;101558.40;;;8.30
70831;BMP180;58451;51.550;7.208;2023-02-03T07:02:51;101554.80;;;8.30
70831;BMP180;58451;51.550;7.208;2023-02-03T07:04:23;101545.80;;;8.30
70831;BMP180;58451;51.550;7.208;2023-02-03T07:05:55;101550.80;;;8.30
70831;BMP180;58451;51.550;7.208;2023-02-03T07:07:27;101557.40;;;8.24
70831;BMP180;58451;51.550;7.208;2023-02-03T07:09:01;101560.20;;;8.20
70831;BMP180;58451;51.550;7.208;2023-02-03T07:10:33;101560.00;;;8.20
70831;BMP180;58451;51.550;7.208;2023-02-03T07:12:07;101562.40;;;8.20
70831;BMP180;58451;51.550;7.208;2023-02-03T07:13:39;101551.80;;;8.20
70831;BMP180;58451;51.550;7.208;2023-02-03T07:15:12;101562.20;;;8.20
70831;BMP180;58451;51.550;7.208;2023-02-03T07:16:44;101571.80;;;8.20
70831;BMP180;58451;51.550;7.208;2023-02-03T07:18:15;101562.60;;;8.20
70831;BMP180;58451;51.550;7.208;2023-02-03T07:20:09;101554.40;;;8.20
70831;BMP180;58451;51.550;7.208;2023-02-03T07:21:41;101560.20;;;8.20
70831;BMP180;58451;51.550;7.208;2023-02-03T07:23:12;101566.20;;;8.20
70831;BMP180;58451;51.550;7.208;2023-02-03T07:24:44;101561.20;;;8.22
70831;BMP180;58451;51.550;7.208;2023-02-03T07:26:16;101550.20;;;8.22
70831;BMP180;58451;51.550;7.208;2023-02-03T07:27:49;101554.00;;;8.30
70831;BMP180;58451;51.550;7.208;2023-02-03T07:29:21;101550.40;;;8.30
70831;BMP180;58451;51.550;7.208;2023-02-03T07:30:53;101551.60;;;8.30
70831;BMP180;58451;51.550;7.208;2023-02-03T07:32:25;101561.60;;;8.30
70831;BMP180;58451;51.550;7.208;2023-02-03T07:33:57;101552.20;;;8.30
70831;BMP180;58451;51.550;7.208;2023-02-03T07:35:29;101554.40;;;8.30
70831;BMP180;58451;51.550;7.208;2023-02-03T07:37:00;101549.80;;;8.30
70831;BMP180;58451;51.550;7.208;2023-02-03T07:38:32;101549.40;;;8.38
70831;BMP180;58451;51.550;7.208;2023-02-03T07:40:04;101542.40;;;8.40
70831;BMP180;58451;51.550;7.208;2023-02-03T07:41:36;101542.80;;;8.40
70831;BMP180;58451;51.550;7.208;2023-02-03T07:43:08;101551.80;;;8.40
70831;BMP180;58451;51.550;7.208;2023-02-03T07:44:40;101555.00;;;8.40
70831;BMP180;58451;51.550;7.208;2023-02-03T07:46:12;101553.00;;;8.50
70831;BMP180;58451;51.550;7.208;2023-02-03T07:47:44;101559.20;;;8.50
70831;BMP180;58451;51.550;7.208;2023-02-03T07:49:16;101552.80;;;8.50
70831;BMP180;58451;51.550;7.208;2023-02-03T07:50:48;101568.00;;;8.50
70831;BMP180;58451;51.550;7.208;2023-02-03T07:52:21;101564.80;;;8.52
70831;BMP180;58451;51.550;7.208;2023-02-03T07:53:52;101558.00;;;8.60
70831;BMP180;58451;51.550;7.208;2023-02-03T07:55:25;101550.40;;;8.54
70831;BMP180;58451;51.550;7.208;2023-02-03T07:56:57;101557.80;;;8.58
70831;BMP180;58451;51.550;7.208;2023-02-03T07:58:30;101572.80;;;8.60
70831;BMP180;58451;51.550;7.208;2023-02-03T08:00:03;101567.60;;;8.60
70831;BMP180;58451;51.550;7.208;2023-02-03T08:01:42;101565.40;;;8.60
70831;BMP180;58451;51.550;7.208;2023-02-03T08:03:14;101560.60;;;8.60
70831;BMP180;58451;51.550;7.208;2023-02-03T08:04:46;101561.60;;;8.64
70831;BMP180;58451;51.550;7.208;2023-02-03T08:06:18;101564.80;;;8.60
70831;BMP180;58451;51.550;7.208;2023-02-03T08:07:50;101569.00;;;8.60
70831;BMP180;58451;51.550;7.208;2023-02-03T08:09:21;101564.60;;;8.62
70831;BMP180;58451;51.550;7.208;2023-02-03T08:10:56;101568.00;;;8.68
70831;BMP180;58451;51.550;7.208;2023-02-03T08:12:28;101570.60;;;8.66
70831;BMP180;58451;51.550;7.208;2023-02-03T08:13:59;101572.80;;;8.70
70831;BMP180;58451;51.550;7.208;2023-02-03T08:15:31;101573.20;;;8.70
70831;BMP180;58451;51.550;7.208;2023-02-03T08:17:03;101567.40;;;8.70
70831;BMP180;58451;51.550;7.208;2023-02-03T08:18:35;101577.20;;;8.70
70831;BMP180;58451;51.550;7.208;2023-02-03T08:20:08;101572.00;;;8.70
70831;BMP180;58451;51.550;7.208;2023-02-03T08:21:40;101564.80;;;8.70
70831;BMP180;58451;51.550;7.208;2023-02-03T08:23:12;101570.00;;;8.70
70831;BMP180;58451;51.550;7.208;2023-02-03T08:24:45;101574.80;;;8.70
70831;BMP180;58451;51.550;7.208;2023-02-03T08:26:17;101579.60;;;8.78
70831;BMP180;58451;51.550;7.208;2023-02-03T08:27:49;101583.80;;;8.76
70831;BMP180;58451;51.550;7.208;2023-02-03T08:29:21;101588.00;;;8.74
70831;BMP180;58451;51.550;7.208;2023-02-03T08:30:53;101578.80;;;8.78
70831;BMP180;58451;51.550;7.208;2023-02-03T08:32:25;101572.60;;;8.76
70831;BMP180;58451;51.550;7.208;2023-02-03T08:33:57;101573.60;;;8.80
70831;BMP180;58451;51.550;7.208;2023-02-03T08:35:29;101562.80;;;8.80
70831;BMP180;58451;51.550;7.208;2023-02-03T08:37:01;101570.60;;;8.80
70831;BMP180;58451;51.550;7.208;2023-02-03T08:38:33;101562.40;;;8.80
70831;BMP180;58451;51.550;7.208;2023-02-03T08:40:06;101561.80;;;8.80
70831;BMP180;58451;51.550;7.208;2023-02-03T08:41:38;101567.20;;;8.80
70831;BMP180;58451;51.550;7.208;2023-02-03T08:43:09;101569.00;;;8.80
70831;BMP180;58451;51.550;7.208;2023-02-03T08:44:41;101561.40;;;8.80
70831;BMP180;58451;51.550;7.208;2023-02-03T08:46:14;101554.60;;;8.80
70831;BMP180;58451;51.550;7.208;2023-02-03T08:47:46;101563.40;;;8.80
70831;BMP180;58451;51.550;7.208;2023-02-03T08:49:19;101562.20;;;8.80
70831;BMP180;58451;51.550;7.208;2023-02-03T08:50:51;101569.20;;;8.80
70831;BMP180;58451;51.550;7.208;2023-02-03T08:52:23;101573.40;;;8.82
70831;BMP180;58451;51.550;7.208;2023-02-03T08:53:55;101573.00;;;8.80
70831;BMP180;58451;51.550;7.208;2023-02-03T08:55:27;101570.40;;;8.80
70831;BMP180;58451;51.550;7.208;2023-02-03T08:56:59;101586.00;;;8.80
70831;BMP180;58451;51.550;7.208;2023-02-03T08:58:30;101582.60;;;8.90
70831;BMP180;58451;51.550;7.208;2023-02-03T09:00:07;101575.00;;;8.90
70831;BMP180;58451;51.550;7.208;2023-02-03T09:01:40;101575.60;;;8.90
70831;BMP180;58451;51.550;7.208;2023-02-03T09:03:15;101580.80;;;8.90
70831;BMP180;58451;51.550;7.208;2023-02-03T09:04:47;101577.80;;;8.90
70831;BMP180;58451;51.550;7.208;2023-02-03T09:06:20;101580.20;;;8.90
70831;BMP180;58451;51.550;7.208;2023-02-03T09:07:55;101584.20;;;8.90
70831;BMP180;58451;51.550;7.208;2023-02-03T09:09:28;101595.60;;;8.90
70831;BMP180;58451;51.550;7.208;2023-02-03T09:11:00;101592.80;;;8.90
70831;BMP180;58451;51.550;7.208;2023-02-03T09:12:31;101593.60;;;8.90
70831;BMP180;58451;51.550;7.208;2023-02-03T09:14:03;101577.60;;;8.90
70831;BMP180;58451;51.550;7.208;2023-02-03T09:15:37;101584.40;;;8.96
70831;BMP180;58451;51.550;7.208;2023-02-03T09:17:09;101590.00;;;9.00
70831;BMP180;58451;51.550;7.208;2023-02-03T09:18:42;101593.60;;;9.00
70831;BMP180;58451;51.550;7.208;2023-02-03T09:20:14;101601.20;;;9.00
70831;BMP180;58451;51.550;7.208;2023-02-03T09:21:46;101597.40;;;9.00
70831;BMP180;58451;51.550;7.208;2023-02-03T09:23:20;101591.60;;;9.00
70831;BMP180;58451;51.550;7.208;2023-02-03T09:24:52;101593.80;;;9.00
70831;BMP180;58451;51.550;7.208;2023-02-03T09:26:23;101602.80;;;9.00
70831;BMP180;58451;51.550;7.208;2023-02-03T09:27:55;101598.60;;;9.00
70831;BMP180;58451;51.550;7.208;2023-02-03T09:29:27;101602.80;;;9.00
70831;BMP180;58451;51.550;7.208;2023-02-03T09:31:08;101597.80;;;9.08